sensor_id;sensor_type;location;lat;lon;timestamp;pressure;altitude;pressure_sealevel;temperature;humidity
43364;BME280;40636;52.424;-1.948;2023-04-06T00:00:50;99691.22;;;8.42;100.00
43364;BME280;40636;52.424;-1.948;2023-04-06T00:03:17;99690.69;;;8.45;100.00
43364;BME280;40636;52.424;-1.948;2023-04-06T00:05:44;99695.34;;;8.44;100.00
43364;BME280;40636;52.424;-1.948;2023-04-06T00:08:11;99683.22;;;8.40;100.00
43364;BME280;40636;52.424;-1.948;2023-04-06T00:10:38;99686.66;;;8.47;100.00
43364;BME280;40636;52.424;-1.948;2023-04-06T00:13:05;99674.66;;;8.48;100.00
43364;BME280;40636;52.424;-1.948;2023-04-06T00:15:32;99672.72;;;8.49;100.00
43364;BME280;40636;52.424;-1.948;2023-04-06T00:17:59;99666.69;;;8.47;100.00
43364;BME280;40636;52.424;-1.948;2023-04-06T00:20:26;99676.56;;;8.48;100.00
43364;BME280;40636;52.424;-1.948;2023-04-06T00:22:52;99672.16;;;8.47;100.00
43364;BME280;40636;52.424;-1.948;2023-04-06T00:25:20;99668.81;;;8.45;100.00
43364;BME280;40636;52.424;-1.948;2023-04-06T00:27:47;99663.69;;;8.48;100.00
43364;BME280;40636;52.424;-1.948;2023-04-06T00:30:13;99661.56;;;8.50;100.00
43364;BME280;40636;52.424;-1.948;2023-04-06T00:32:40;99654.41;;;8.49;100.00
43364;BME280;40636;52.424;-1.948;2023-04-06T00:35:07;99652.75;;;8.48;100.00
43364;BME280;40636;52.424;-1.948;2023-04-06T00:37:34;99654.41;;;8.49;100.00
43364;BME280;40636;52.424;-1.948;2023-04-06T00:40:00;99653.59;;;8.49;100.00
43364;BME280;40636;52.424;-1.948;2023-04-06T00:42:27;99648.38;;;8.47;100.00
43364;BME280;40636;52.424;-1.948;2023-04-06T00:44:56;99650.53;;;8.45;100.00
43364;BME280;40636;52.424;-1.948;2023-04-06T00:47:24;99641.25;;;8.46;100.00
43364;BME280;40636;52.424;-1.948;2023-04-06T00:49:54;99644.00;;;8.46;100.00
43364;BME280;40636;52.424;-1.948;2023-04-06T00:52:21;99642.66;;;8.49;100.00
43364;BME280;40636;52.424;-1.948;2023-04-06T00:54:49;99631.97;;;8.47;100.00
43364;BME280;40636;52.424;-1.948;2023-04-06T00:57:17;99636.00;;;8.45;100.00
43364;BME280;40636;52.424;-1.948;2023-04-06T00:59:44;99634.22;;;8.50;100.00
43364;BME280;40636;52.424;-1.948;2023-04-06T01:02:11;99628.16;;;8.48;100.00
43364;BME280;40636;52.424;-1.948;2023-04-06T01:04:38;99630.88;;;8.48;100.00
43364;BME280;40636;52.424;-1.948;2023-04-06T01:07:05;99629.81;;;8.49;100.00
43364;BME280;40636;52.424;-1.948;2023-04-06T01:09:32;99623.03;;;8.52;100.00
43364;BME280;40636;52.424;-1.948;2023-04-06T01:11:59;99613.19;;;8.51;100.00
43364;BME280;40636;52.424;-1.948;2023-04-06T01:14:26;99615.66;;;8.52;100.00
43364;BME280;40636;52.424;-1.948;2023-04-06T01:16:53;99624.34;;;8.49;100.00
43364;BME280;40636;52.424;-1.948;2023-04-06T01:19:21;99624.94;;;8.51;100.00
43364;BME280;40636;52.424;-1.948;2023-04-06T01:21:48;99612.34;;;8.50;100.00
43364;BME280;40636;52.424;-1.948;2023-04-06T01:24:16;99617.31;;;8.53;100.00
43364;BME280;40636;52.424;-1.948;2023-04-06T01:26:43;99609.69;;;8.55;100.00
43364;BME280;40636;52.424;-1.948;2023-04-06T01:29:10;99605.88;;;8.56;100.00
43364;BME280;40636;52.424;-1.948;2023-04-06T01:31:38;99604.22;;;8.55;100.00
43364;BME280;40636;52.424;-1.948;2023-04-06T01:34:05;99601.97;;;8.52;100.00
43364;BME280;40636;52.424;-1.948;2023-04-06T01:36:32;99591.03;;;8.52;100.00
43364;BME280;40636;52.424;-1.948;2023-04-06T01:38:59;99591.66;;;8.54;100.00
43364;BME280;40636;52.424;-1.948;2023-04-06T01:41:26;99586.41;;;8.53;100.00
43364;BME280;40636;52.424;-1.948;2023-04-06T01:43:52;99577.63;;;8.51;100.00
43364;BME280;40636;52.424;-1.948;2023-04-06T01:46:21;99574.88;;;8.51;100.00
43364;BME280;40636;52.424;-1.948;2023-04-06T01:48:47;99552.66;;;8.47;100.00
43364;BME280;40636;52.424;-1.948;2023-04-06T01:51:15;99557.06;;;8.48;100.00
43364;BME280;40636;52.424;-1.948;2023-04-06T01:53:41;99550.50;;;8.49;100.00
43364;BME280;40636;52.424;-1.948;2023-04-06T01:56:08;99555.75;;;8.51;100.00
43364;BME280;40636;52.424;-1.948;2023-04-06T01:58:35;99553.84;;;8.51;100.00
43364;BME280;40636;52.424;-1.948;2023-04-06T02:01:02;99552.41;;;8.49;100.00
43364;BME280;40636;52.424;-1.948;2023-04-06T02:03:29;99555.16;;;8.49;100.00
43364;BME280;40636;52.424;-1.948;2023-04-06T02:05:57;99548.84;;;8.48;100.00
43364;BME280;40636;52.424;-1.948;2023-04-06T02:08:23;99546.72;;;8.50;100.00
43364;BME280;40636;52.424;-1.948;2023-04-06T02:10:50;99545.56;;;8.46;100.00
43364;BME280;40636;52.424;-1.948;2023-04-06T02:13:17;99552.66;;;8.47;100.00
43364;BME280;40636;52.424;-1.948;2023-04-06T02:15:43;99546.13;;;8.48;100.00
43364;BME280;40636;52.424;-1.948;2023-04-06T02:18:10;99546.72;;;8.50;100.00
43364;BME280;40636;52.424;-1.948;2023-04-06T02:20:37;99541.00;;;8.52;100.00
43364;BME280;40636;52.424;-1.948;2023-04-06T02:23:04;99544.91;;;8.56;100.00
43364;BME280;40636;52.424;-1.948;2023-04-06T02:25:30;99539.41;;;8.56;100.00
43364;BME280;40636;52.424;-1.948;2023-04-06T02:27:57;99530.41;;;8.55;100.00
43364;BME280;40636;52.424;-1.948;2023-04-06T02:30:24;99539.16;;;8.57;100.00
43364;BME280;40636;52.424;-1.948;2023-04-06T02:32:50;99541.41;;;8.60;100.00
43364;BME280;40636;52.424;-1.948;2023-04-06T02:35:17;99542.50;;;8.59;100.00
43364;BME280;40636;52.424;-1.948;2023-04-06T02:37:44;99543.81;;;8.57;100.00
43364;BME280;40636;52.424;-1.948;2023-04-06T02:40:11;99539.75;;;8.59;100.00
43364;BME280;40636;52.424;-1.948;2023-04-06T02:42:38;99529.91;;;8.58;100.00
43364;BME280;40636;52.424;-1.948;2023-04-06T02:45:05;99528.22;;;8.57;100.00
43364;BME280;40636;52.424;-1.948;2023-04-06T02:47:33;99529.06;;;8.58;100.00
43364;BME280;40636;52.424;-1.948;2023-04-06T02:49:59;99527.19;;;8.58;100.00
43364;BME280;40636;52.424;-1.948;2023-04-06T02:52:26;99518.72;;;8.60;100.00
43364;BME280;40636;52.424;-1.948;2023-04-06T02:54:53;99522.84;;;8.62;100.00
43364;BME280;40636;52.424;-1.948;2023-04-06T02:57:19;99513.81;;;8.62;100.00
43364;BME280;40636;52.424;-1.948;2023-04-06T02:59:46;99520.09;;;8.62;100.00
43364;BME280;40636;52.424;-1.948;2023-04-06T03:02:13;99516.31;;;8.63;100.00
43364;BME280;40636;52.424;-1.948;2023-04-06T03:04:40;99504.78;;;8.61;100.00
43364;BME280;40636;52.424;-1.948;2023-04-06T03:07:06;99512.63;;;8.58;100.00
43364;BME280;40636;52.424;-1.948;2023-04-06T03:09:33;99499.72;;;8.53;100.00
43364;BME280;40636;52.424;-1.948;2023-04-06T03:12:00;99494.75;;;8.50;100.00
43364;BME280;40636;52.424;-1.948;2023-04-06T03:14:27;99499.16;;;8.51;100.00
43364;BME280;40636;52.424;-1.948;2023-04-06T03:16:54;99490.94;;;8.51;100.00
43364;BME280;40636;52.424;-1.948;2023-04-06T03:19:21;99482.47;;;8.53;100.00
43364;BME280;40636;52.424;-1.948;2023-04-06T03:21:47;99484.88;;;8.49;100.00
43364;BME280;40636;52.424;-1.948;2023-04-06T03:24:14;99474.44;;;8.46;100.00
43364;BME280;40636;52.424;-1.948;2023-04-06T03:26:41;99476.38;;;8.46;100.00
43364;BME280;40636;52.424;-1.948;2023-04-06T03:29:08;99473.84;;;8.44;100.00
43364;BME280;40636;52.424;-1.948;2023-04-06T03:31:35;99460.78;;;8.46;100.00
43364;BME280;40636;52.424;-1.948;2023-04-06T03:34:02;99463.50;;;8.46;100.00
43364;BME280;40636;52.424;-1.948;2023-04-06T03:36:28;99461.88;;;8.45;100.00
43364;BME280;40636;52.424;-1.948;2023-04-06T03:38:56;99465.16;;;8.47;100.00
43364;BME280;40636;52.424;-1.948;2023-04-06T03:41:23;99456.41;;;8.45;100.00
43364;BME280;40636;52.424;-1.948;2023-04-06T03:43:50;99461.88;;;8.45;100.00
43364;BME280;40636;52.424;-1.948;2023-04-06T03:46:17;99464.34;;;8.47;100.00
43364;BME280;40636;52.424;-1.948;2023-04-06T03:48:43;99462.44;;;8.47;100.00
43364;BME280;40636;52.424;-1.948;2023-04-06T03:51:10;99455.31;;;8.46;100.00
43364;BME280;40636;52.424;-1.948;2023-04-06T03:53:37;99455.31;;;8.46;100.00
43364;BME280;40636;52.424;-1.948;2023-04-06T03:56:03;99444.38;;;8.46;100.00
43364;BME280;40636;52.424;-1.948;2023-04-06T03:58:31;99440.47;;;8.42;100.00
43364;BME280;40636;52.424;-1.948;2023-04-06T04:00:57;99443.69;;;8.39;100.00
43364;BME280;40636;52.424;-1.948;2023-04-06T04:03:24;99438.84;;;8.41;100.00
43364;BME280;40636;52.424;-1.948;2023-04-06T04:05:54;99435.28;;;8.41;100.00
43364;BME280;40636;52.424;-1.948;2023-04-06T04:08:21;99433.59;;;8.39;100.00
43364;BME280;40636;52.424;-1.948;2023-04-06T04:10:48;99429.47;;;8.37;100.00
43364;BME280;40636;52.424;-1.948;2023-04-06T04:13:15;99425.06;;;8.36;100.00
43364;BME280;40636;52.424;-1.948;2023-04-06T04:15:42;99413.53;;;8.34;100.00
43364;BME280;40636;52.424;-1.948;2023-04-06T04:18:08;99413.69;;;8.27;100.00
43364;BME280;40636;52.424;-1.948;2023-04-06T04:20:35;99413.63;;;8.22;100.00
43364;BME280;40636;52.424;-1.948;2023-04-06T04:23:02;99411.63;;;8.18;100.00
43364;BME280;40636;52.424;-1.948;2023-04-06T04:25:29;99418.06;;;8.11;100.00
43364;BME280;40636;52.424;-1.948;2023-04-06T04:27:56;99424.06;;;8.08;100.00
43364;BME280;40636;52.424;-1.948;2023-04-06T04:30:22;99429.00;;;8.11;100.00
43364;BME280;40636;52.424;-1.948;2023-04-06T04:32:49;99434.25;;;8.13;100.00
43364;BME280;40636;52.424;-1.948;2023-04-06T04:35:15;99428.50;;;8.14;100.00
43364;BME280;40636;52.424;-1.948;2023-04-06T04:37:42;99434.53;;;8.17;100.00
43364;BME280;40636;52.424;-1.948;2023-04-06T04:40:09;99433.81;;;8.21;100.00
43364;BME280;40636;52.424;-1.948;2023-04-06T04:42:36;99440.94;;;8.22;100.00
43364;BME280;40636;52.424;-1.948;2023-04-06T04:45:03;99442.00;;;8.21;100.00
43364;BME280;40636;52.424;-1.948;2023-04-06T04:47:30;99441.25;;;8.26;100.00
43364;BME280;40636;52.424;-1.948;2023-04-06T04:49:57;99439.63;;;8.25;100.00
43364;BME280;40636;52.424;-1.948;2023-04-06T04:52:24;99434.97;;;8.25;100.00
43364;BME280;40636;52.424;-1.948;2023-04-06T04:54:51;99434.75;;;8.27;100.00
43364;BME280;40636;52.424;-1.948;2023-04-06T04:57:17;99432.00;;;8.27;100.00
43364;BME280;40636;52.424;-1.948;2023-04-06T04:59:44;99442.69;;;8.28;100.00
43364;BME280;40636;52.424;-1.948;2023-04-06T05:02:11;99444.06;;;8.31;100.00
43364;BME280;40636;52.424;-1.948;2023-04-06T05:04:37;99435.88;;;8.31;100.00
43364;BME280;40636;52.424;-1.948;2023-04-06T05:07:06;99432.91;;;8.32;100.00
43364;BME280;40636;52.424;-1.948;2023-04-06T05:09:33;99432.09;;;8.32;100.00
43364;BME280;40636;52.424;-1.948;2023-04-06T05:12:00;99441.94;;;8.33;100.00
43364;BME280;40636;52.424;-1.948;2023-04-06T05:14:27;99443.13;;;8.37;100.00
43364;BME280;40636;52.424;-1.948;2023-04-06T05:16:54;99441.44;;;8.36;100.00
43364;BME280;40636;52.424;-1.948;2023-04-06T05:19:21;99439.31;;;8.38;100.00
43364;BME280;40636;52.424;-1.948;2023-04-06T05:21:48;99430.03;;;8.39;100.00
43364;BME280;40636;52.424;-1.948;2023-04-06T05:24:14;99430.03;;;8.39;100.00
43364;BME280;40636;52.424;-1.948;2023-04-06T05:26:41;99421.25;;;8.37;100.00
43364;BME280;40636;52.424;-1.948;2023-04-06T05:29:08;99423.38;;;8.35;100.00
43364;BME280;40636;52.424;-1.948;2023-04-06T05:31:35;99427.28;;;8.39;100.00
43364;BME280;40636;52.424;-1.948;2023-04-06T05:34:02;99431.13;;;8.38;100.00
43364;BME280;40636;52.424;-1.948;2023-04-06T05:36:29;99434.66;;;8.38;100.00
43364;BME280;40636;52.424;-1.948;2023-04-06T05:38:57;99439.06;;;8.39;100.00
43364;BME280;40636;52.424;-1.948;2023-04-06T05:41:24;99445.63;;;8.38;100.00
43364;BME280;40636;52.424;-1.948;2023-04-06T05:43:51;99436.59;;;8.38;100.00
43364;BME280;40636;52.424;-1.948;2023-04-06T05:46:18;99431.69;;;8.40;100.00
43364;BME280;40636;52.424;-1.948;2023-04-06T05:48:45;99434.94;;;8.37;100.00
43364;BME280;40636;52.424;-1.948;2023-04-06T05:51:12;99441.78;;;8.39;100.00
43364;BME280;40636;52.424;-1.948;2023-04-06T05:53:38;99442.63;;;8.40;100.00
43364;BME280;40636;52.424;-1.948;2023-04-06T05:56:05;99451.41;;;8.42;100.00
43364;BME280;40636;52.424;-1.948;2023-04-06T05:58:32;99449.25;;;8.44;100.00
43364;BME280;40636;52.424;-1.948;2023-04-06T06:01:00;99449.84;;;8.46;100.00
43364;BME280;40636;52.424;-1.948;2023-04-06T06:03:27;99456.72;;;8.49;100.00
43364;BME280;40636;52.424;-1.948;2023-04-06T06:05:53;99453.16;;;8.48;100.00
43364;BME280;40636;52.424;-1.948;2023-04-06T06:08:20;99454.56;;;8.51;100.00
43364;BME280;40636;52.424;-1.948;2023-04-06T06:10:47;99462.50;;;8.52;100.00
43364;BME280;40636;52.424;-1.948;2023-04-06T06:13:13;99466.81;;;8.48;100.00
43364;BME280;40636;52.424;-1.948;2023-04-06T06:15:40;99465.25;;;8.52;100.00
43364;BME280;40636;52.424;-1.948;2023-04-06T06:18:07;99458.94;;;8.52;100.00
43364;BME280;40636;52.424;-1.948;2023-04-06T06:20:33;99461.69;;;8.52;100.00
43364;BME280;40636;52.424;-1.948;2023-04-06T06:23:00;99466.59;;;8.50;100.00
43364;BME280;40636;52.424;-1.948;2023-04-06T06:25:27;99465.25;;;8.52;100.00
43364;BME280;40636;52.424;-1.948;2023-04-06T06:27:53;99469.16;;;8.56;100.00
43364;BME280;40636;52.424;-1.948;2023-04-06T06:30:20;99480.09;;;8.56;100.00
43364;BME280;40636;52.424;-1.948;2023-04-06T06:32:49;99484.47;;;8.57;100.00
43364;BME280;40636;52.424;-1.948;2023-04-06T06:35:16;99485.28;;;8.58;100.00
43364;BME280;40636;52.424;-1.948;2023-04-06T06:37:43;99496.34;;;8.63;100.00
43364;BME280;40636;52.424;-1.948;2023-04-06T06:40:10;99500.81;;;8.69;100.00
43364;BME280;40636;52.424;-1.948;2023-04-06T06:42:39;99495.19;;;8.59;100.00
43364;BME280;40636;52.424;-1.948;2023-04-06T06:45:07;99485.88;;;8.60;100.00
43364;BME280;40636;52.424;-1.948;2023-04-06T06:47:34;99487.38;;;8.68;100.00
43364;BME280;40636;52.424;-1.948;2023-04-06T06:50:00;99491.44;;;8.65;100.00
43364;BME280;40636;52.424;-1.948;2023-04-06T06:52:29;99495.34;;;8.69;100.00
43364;BME280;40636;52.424;-1.948;2023-04-06T06:54:55;99492.34;;;8.71;100.00
43364;BME280;40636;52.424;-1.948;2023-04-06T06:57:25;99497.13;;;8.80;100.00
43364;BME280;40636;52.424;-1.948;2023-04-06T06:59:52;99501.28;;;8.83;100.00
43364;BME280;40636;52.424;-1.948;2023-04-06T07:02:18;99512.66;;;8.92;100.00
43364;BME280;40636;52.424;-1.948;2023-04-06T07:04:48;99516.47;;;8.91;100.00
43364;BME280;40636;52.424;-1.948;2023-04-06T07:07:15;99524.69;;;8.91;100.00
43364;BME280;40636;52.424;-1.948;2023-04-06T07:09:42;99520.19;;;9.01;100.00
43364;BME280;40636;52.424;-1.948;2023-04-06T07:12:09;99522.84;;;8.96;100.00
43364;BME280;40636;52.424;-1.948;2023-04-06T07:14:36;99540.34;;;8.95;100.00
43364;BME280;40636;52.424;-1.948;2023-04-06T07:17:03;99546.38;;;8.97;100.00
43364;BME280;40636;52.424;-1.948;2023-04-06T07:19:29;99540.91;;;8.97;100.00
43364;BME280;40636;52.424;-1.948;2023-04-06T07:21:56;99551.84;;;8.97;100.00
43364;BME280;40636;52.424;-1.948;2023-04-06T07:24:23;99550.78;;;8.98;100.00
43364;BME280;40636;52.424;-1.948;2023-04-06T07:26:50;99548.03;;;8.98;100.00
43364;BME280;40636;52.424;-1.948;2023-04-06T07:29:17;99541.72;;;8.98;100.00
43364;BME280;40636;52.424;-1.948;2023-04-06T07:31:44;99540.50;;;9.05;100.00
43364;BME280;40636;52.424;-1.948;2023-04-06T07:34:11;99546.53;;;9.07;100.00
43364;BME280;40636;52.424;-1.948;2023-04-06T07:36:38;99541.06;;;9.07;100.00
43364;BME280;40636;52.424;-1.948;2023-04-06T07:39:04;99553.84;;;9.02;100.00
43364;BME280;40636;52.424;-1.948;2023-04-06T07:41:31;99545.31;;;8.98;100.00
43364;BME280;40636;52.424;-1.948;2023-04-06T07:43:58;99553.16;;;8.95;100.00
43364;BME280;40636;52.424;-1.948;2023-04-06T07:46:25;99553.50;;;8.98;100.00
43364;BME280;40636;52.424;-1.948;2023-04-06T07:48:51;99555.75;;;9.01;100.00
43364;BME280;40636;52.424;-1.948;2023-04-06T07:51:18;99548.72;;;9.05;100.00
43364;BME280;40636;52.424;-1.948;2023-04-06T07:53:45;99551.84;;;9.14;100.00
43364;BME280;40636;52.424;-1.948;2023-04-06T07:56:12;99548.28;;;9.13;100.00
43364;BME280;40636;52.424;-1.948;2023-04-06T07:58:38;99549.59;;;9.11;100.00
43364;BME280;40636;52.424;-1.948;2023-04-06T08:01:05;99533.19;;;9.11;100.00
43364;BME280;40636;52.424;-1.948;2023-04-06T08:03:36;99540.75;;;9.04;100.00
43364;BME280;40636;52.424;-1.948;2023-04-06T08:06:03;99542.75;;;9.08;100.00
43364;BME280;40636;52.424;-1.948;2023-04-06T08:08:31;99541.66;;;9.09;100.00
43364;BME280;40636;52.424;-1.948;2023-04-06T08:10:58;99540.38;;;9.17;100.00
43364;BME280;40636;52.424;-1.948;2023-04-06T08:13:27;99537.28;;;9.08;100.00
43364;BME280;40636;52.424;-1.948;2023-04-06T08:15:54;99539.81;;;9.15;100.00
43364;BME280;40636;52.424;-1.948;2023-04-06T08:18:21;99538.72;;;9.16;100.00
43364;BME280;40636;52.424;-1.948;2023-04-06T08:20:48;99544.88;;;9.23;100.00
43364;BME280;40636;52.424;-1.948;2023-04-06T08:23:15;99542.00;;;9.35;100.00
43364;BME280;40636;52.424;-1.948;2023-04-06T08:25:43;99546.84;;;9.28;100.00
43364;BME280;40636;52.424;-1.948;2023-04-06T08:28:09;99558.00;;;9.43;100.00
43364;BME280;40636;52.424;-1.948;2023-04-06T08:30:39;99556.63;;;9.40;100.00
43364;BME280;40636;52.424;-1.948;2023-04-06T08:33:06;99561.34;;;9.45;100.00
43364;BME280;40636;52.424;-1.948;2023-04-06T08:35:33;99563.41;;;9.38;100.00
43364;BME280;40636;52.424;-1.948;2023-04-06T08:38:00;99565.53;;;9.53;100.00
43364;BME280;40636;52.424;-1.948;2023-04-06T08:40:27;99579.16;;;9.48;100.00
43364;BME280;40636;52.424;-1.948;2023-04-06T08:42:59;99566.34;;;9.31;100.00
43364;BME280;40636;52.424;-1.948;2023-04-06T08:45:28;99582.50;;;9.33;100.00
43364;BME280;40636;52.424;-1.948;2023-04-06T08:47:56;99593.34;;;9.45;100.00
43364;BME280;40636;52.424;-1.948;2023-04-06T08:50:25;99585.53;;;9.53;100.00
43364;BME280;40636;52.424;-1.948;2023-04-06T08:52:52;99587.22;;;9.54;100.00
43364;BME280;40636;52.424;-1.948;2023-04-06T08:55:19;99583.94;;;9.57;100.00
43364;BME280;40636;52.424;-1.948;2023-04-06T08:57:46;99596.00;;;9.56;100.00
43364;BME280;40636;52.424;-1.948;2023-04-06T09:00:14;99593.19;;;9.51;100.00
43364;BME280;40636;52.424;-1.948;2023-04-06T09:02:43;99595.59;;;9.48;100.00
43364;BME280;40636;52.424;-1.948;2023-04-06T09:05:12;99592.09;;;9.52;100.00
43364;BME280;40636;52.424;-1.948;2023-04-06T09:07:40;99593.25;;;9.56;100.00
43364;BME280;40636;52.424;-1.948;2023-04-06T09:10:07;99600.97;;;9.59;100.00
43364;BME280;40636;52.424;-1.948;2023-04-06T09:12:35;99609.44;;;9.58;100.00
43364;BME280;40636;52.424;-1.948;2023-04-06T09:15:02;99603.19;;;9.62;100.00
43364;BME280;40636;52.424;-1.948;2023-04-06T09:17:31;99598.63;;;9.68;100.00
43364;BME280;40636;52.424;-1.948;2023-04-06T09:20:00;99603.34;;;9.73;100.00
43364;BME280;40636;52.424;-1.948;2023-04-06T09:22:36;99600.53;;;9.68;100.00
43364;BME280;40636;52.424;-1.948;2023-04-06T09:25:03;99608.31;;;9.76;100.00
43364;BME280;40636;52.424;-1.948;2023-04-06T09:27:35;99609.28;;;9.86;100.00
43364;BME280;40636;52.424;-1.948;2023-04-06T09:30:06;99614.91;;;9.97;100.00
43364;BME280;40636;52.424;-1.948;2023-04-06T09:32:47;99609.03;;;9.88;100.00
43364;BME280;40636;52.424;-1.948;2023-04-06T09:35:15;99615.22;;;10.00;100.00
43364;BME280;40636;52.424;-1.948;2023-04-06T09:37:45;99610.94;;;9.87;100.00
43364;BME280;40636;52.424;-1.948;2023-04-06T09:40:13;99612.84;;;9.87;100.00
43364;BME280;40636;52.424;-1.948;2023-04-06T09:42:41;99620.69;;;10.00;100.00
43364;BME280;40636;52.424;-1.948;2023-04-06T09:45:08;99619.06;;;9.99;100.00
43364;BME280;40636;52.424;-1.948;2023-04-06T09:47:36;99624.59;;;10.04;100.00
43364;BME280;40636;52.424;-1.948;2023-04-06T09:50:03;99617.03;;;10.16;100.00
43364;BME280;40636;52.424;-1.948;2023-04-06T09:52:38;99617.97;;;10.22;100.00
43364;BME280;40636;52.424;-1.948;2023-04-06T09:55:07;99614.91;;;10.40;100.00
43364;BME280;40636;52.424;-1.948;2023-04-06T09:57:41;99612.94;;;10.63;100.00
43364;BME280;40636;52.424;-1.948;2023-04-06T10:00:13;99623.69;;;10.70;100.00
43364;BME280;40636;52.424;-1.948;2023-04-06T10:02:58;99609.94;;;10.64;100.00
43364;BME280;40636;52.424;-1.948;2023-04-06T10:05:42;99611.66;;;10.76;100.00
43364;BME280;40636;52.424;-1.948;2023-04-06T10:08:13;99611.19;;;10.84;100.00
43364;BME280;40636;52.424;-1.948;2023-04-06T10:10:40;99624.38;;;10.82;100.00
43364;BME280;40636;52.424;-1.948;2023-04-06T10:13:10;99618.31;;;10.80;100.00
43364;BME280;40636;52.424;-1.948;2023-04-06T10:15:40;99627.00;;;10.72;100.00
43364;BME280;40636;52.424;-1.948;2023-04-06T10:18:08;99631.97;;;10.75;100.00
43364;BME280;40636;52.424;-1.948;2023-04-06T10:20:39;99626.91;;;10.61;100.00
43364;BME280;40636;52.424;-1.948;2023-04-06T10:23:13;99634.78;;;10.80;100.00
43364;BME280;40636;52.424;-1.948;2023-04-06T10:26:13;99639.91;;;11.03;100.00
43364;BME280;40636;52.424;-1.948;2023-04-06T10:28:41;99636.22;;;11.20;100.00
43364;BME280;40636;52.424;-1.948;2023-04-06T10:31:08;99635.69;;;11.17;100.00
43364;BME280;40636;52.424;-1.948;2023-04-06T10:33:35;99638.66;;;11.16;100.00
43364;BME280;40636;52.424;-1.948;2023-04-06T10:36:15;99637.97;;;10.99;100.00
43364;BME280;40636;52.424;-1.948;2023-04-06T10:38:57;99641.72;;;10.87;100.00
43364;BME280;40636;52.424;-1.948;2023-04-06T10:41:42;99640.06;;;10.86;100.00
43364;BME280;40636;52.424;-1.948;2023-04-06T10:44:20;99638.59;;;11.06;100.00
43364;BME280;40636;52.424;-1.948;2023-04-06T10:46:59;99628.50;;;11.16;100.00
43364;BME280;40636;52.424;-1.948;2023-04-06T10:49:29;99636.31;;;11.30;100.00
43364;BME280;40636;52.424;-1.948;2023-04-06T10:51:56;99638.50;;;11.28;100.00
43364;BME280;40636;52.424;-1.948;2023-04-06T10:54:24;99634.25;;;11.52;100.00
43364;BME280;40636;52.424;-1.948;2023-04-06T10:56:52;99631.34;;;11.69;100.00
43364;BME280;40636;52.424;-1.948;2023-04-06T10:59:22;99625.59;;;11.71;100.00
43364;BME280;40636;52.424;-1.948;2023-04-06T11:01:49;99635.88;;;11.48;100.00
43364;BME280;40636;52.424;-1.948;2023-04-06T11:04:17;99635.28;;;11.36;100.00
43364;BME280;40636;52.424;-1.948;2023-04-06T11:06:48;99638.00;;;11.36;100.00
43364;BME280;40636;52.424;-1.948;2023-04-06T11:09:29;99630.00;;;11.34;100.00
43364;BME280;40636;52.424;-1.948;2023-04-06T11:11:57;99645.91;;;11.27;100.00
43364;BME280;40636;52.424;-1.948;2023-04-06T11:14:25;99630.94;;;11.45;100.00
43364;BME280;40636;52.424;-1.948;2023-04-06T11:16:53;99631.53;;;11.52;100.00
43364;BME280;40636;52.424;-1.948;2023-04-06T11:19:20;99642.06;;;11.71;100.00
43364;BME280;40636;52.424;-1.948;2023-04-06T11:21:48;99645.28;;;11.57;100.00
43364;BME280;40636;52.424;-1.948;2023-04-06T11:24:19;99641.50;;;11.63;100.00
43364;BME280;40636;52.424;-1.948;2023-04-06T11:26:48;99642.13;;;11.38;100.00
43364;BME280;40636;52.424;-1.948;2023-04-06T11:29:17;99644.84;;;11.33;100.00
43364;BME280;40636;52.424;-1.948;2023-04-06T11:31:49;99650.75;;;11.15;100.00
43364;BME280;40636;52.424;-1.948;2023-04-06T11:34:19;99663.44;;;10.94;100.00
43364;BME280;40636;52.424;-1.948;2023-04-06T11:36:48;99667.06;;;10.95;100.00
43364;BME280;40636;52.424;-1.948;2023-04-06T11:39:21;99650.78;;;10.88;100.00
43364;BME280;40636;52.424;-1.948;2023-04-06T11:41:50;99657.97;;;10.94;100.00
43364;BME280;40636;52.424;-1.948;2023-04-06T11:44:36;99667.28;;;10.93;100.00
43364;BME280;40636;52.424;-1.948;2023-04-06T11:47:07;99668.63;;;11.17;100.00
43364;BME280;40636;52.424;-1.948;2023-04-06T11:49:37;99654.25;;;11.42;100.00
43364;BME280;40636;52.424;-1.948;2023-04-06T11:52:16;99650.16;;;11.45;100.00
43364;BME280;40636;52.424;-1.948;2023-04-06T11:54:44;99659.66;;;11.69;100.00
43364;BME280;40636;52.424;-1.948;2023-04-06T11:57:11;99650.34;;;11.76;100.00
43364;BME280;40636;52.424;-1.948;2023-04-06T11:59:38;99667.31;;;11.62;100.00
43364;BME280;40636;52.424;-1.948;2023-04-06T12:02:06;99664.63;;;11.35;100.00
43364;BME280;40636;52.424;-1.948;2023-04-06T12:04:33;99670.06;;;11.25;100.00
43364;BME280;40636;52.424;-1.948;2023-04-06T12:07:00;99657.34;;;11.14;100.00
43364;BME280;40636;52.424;-1.948;2023-04-06T12:09:26;99666.44;;;11.20;100.00
43364;BME280;40636;52.424;-1.948;2023-04-06T12:11:53;99667.06;;;11.27;100.00
43364;BME280;40636;52.424;-1.948;2023-04-06T12:14:20;99656.19;;;11.42;100.00
43364;BME280;40636;52.424;-1.948;2023-04-06T12:16:47;99656.28;;;11.57;100.00
43364;BME280;40636;52.424;-1.948;2023-04-06T12:19:14;99661.16;;;11.82;100.00
43364;BME280;40636;52.424;-1.948;2023-04-06T12:21:41;99667.16;;;11.79;100.00
43364;BME280;40636;52.424;-1.948;2023-04-06T12:24:08;99672.34;;;11.76;100.00
43364;BME280;40636;52.424;-1.948;2023-04-06T12:26:36;99664.75;;;11.88;100.00
43364;BME280;40636;52.424;-1.948;2023-04-06T12:29:03;99674.13;;;11.92;100.00
43364;BME280;40636;52.424;-1.948;2023-04-06T12:31:37;99678.88;;;11.64;100.00
43364;BME280;40636;52.424;-1.948;2023-04-06T12:34:07;99677.38;;;11.47;100.00
43364;BME280;40636;52.424;-1.948;2023-04-06T12:36:34;99675.44;;;11.47;100.00
43364;BME280;40636;52.424;-1.948;2023-04-06T12:39:01;99675.19;;;11.49;100.00
43364;BME280;40636;52.424;-1.948;2023-04-06T12:41:28;99678.56;;;11.61;100.00
43364;BME280;40636;52.424;-1.948;2023-04-06T12:43:56;99673.13;;;11.71;100.00
43364;BME280;40636;52.424;-1.948;2023-04-06T12:46:23;99664.53;;;11.57;100.00
43364;BME280;40636;52.424;-1.948;2023-04-06T12:48:51;99688.63;;;11.45;100.00
43364;BME280;40636;52.424;-1.948;2023-04-06T12:51:20;99690.22;;;11.36;100.00